createdAt,value
2018-03-14T00:00:56.578Z,92.90
2018-03-14T00:03:24.058Z,92.80
2018-03-14T00:05:51.591Z,92.60
2018-03-14T00:08:19.087Z,92.80
2018-03-14T00:10:46.580Z,92.50
2018-03-14T00:13:14.093Z,92.60
2018-03-14T00:15:42.406Z,92.60
2018-03-14T00:18:09.945Z,92.60
2018-03-14T00:20:37.450Z,92.50
2018-03-14T00:23:04.947Z,92.50
2018-03-14T00:25:33.188Z,92.20
2018-03-14T00:28:00.703Z,92.20
2018-03-14T00:30:28.187Z,92.40
2018-03-14T00:32:55.686Z,92.40
2018-03-14T00:35:23.940Z,92.30
2018-03-14T00:37:51.481Z,92.30
2018-03-14T00:40:19.025Z,92.50
2018-03-14T00:42:46.668Z,92.60
2018-03-14T00:45:14.174Z,92.50
2018-03-14T00:47:41.856Z,92.40
2018-03-14T00:50:10.143Z,92.20
2018-03-14T00:52:37.669Z,92.20
2018-03-14T00:55:05.950Z,92.40
2018-03-14T00:57:34.195Z,92.40
2018-03-14T01:00:01.686Z,92.40
2018-03-14T01:02:29.963Z,92.20
2018-03-14T01:04:58.431Z,92.20
2018-03-14T01:07:26.674Z,92.30
2018-03-14T01:09:54.175Z,92.30
2018-03-14T01:12:22.415Z,92.10
2018-03-14T01:14:49.924Z,92.10
2018-03-14T01:17:17.594Z,92.20
2018-03-14T01:19:45.210Z,92.10
2018-03-14T01:22:13.512Z,92.30
2018-03-14T01:24:41.059Z,92.40
2018-03-14T01:27:08.745Z,91.90
2018-03-14T01:29:36.259Z,92.10
2018-03-14T01:32:04.555Z,92.00
2018-03-14T01:34:32.079Z,92.00
2018-03-14T01:36:59.818Z,91.90
2018-03-14T01:39:27.347Z,92.00
2018-03-14T01:41:54.839Z,92.00
2018-03-14T01:44:22.321Z,92.00
2018-03-14T01:46:50.586Z,91.70
2018-03-14T01:49:18.076Z,91.70
2018-03-14T01:51:45.657Z,91.70
2018-03-14T01:54:13.179Z,91.80
2018-03-14T01:56:41.520Z,91.90
2018-03-14T01:59:09.022Z,91.90
2018-03-14T02:01:36.587Z,92.00
2018-03-14T02:04:04.158Z,91.80
2018-03-14T02:06:31.699Z,91.80
2018-03-14T02:08:59.274Z,91.90
2018-03-14T02:11:27.068Z,92.20
2018-03-14T02:13:54.565Z,92.20
2018-03-14T02:16:22.203Z,92.10
2018-03-14T02:18:49.913Z,91.80
2018-03-14T02:21:17.499Z,91.90
2018-03-14T02:23:45.144Z,91.90
2018-03-14T02:26:12.790Z,92.00
2018-03-14T02:28:40.405Z,92.00
2018-03-14T02:31:08.832Z,91.80
2018-03-14T02:33:36.347Z,91.80
2018-03-14T02:36:04.626Z,91.70
2018-03-14T02:38:32.204Z,91.70
2018-03-14T02:40:59.712Z,91.70
2018-03-14T02:43:27.298Z,91.60
2018-03-14T02:45:55.714Z,91.60
2018-03-14T02:48:23.238Z,91.50
2018-03-14T02:50:51.654Z,91.60
2018-03-14T02:53:19.397Z,91.60
2018-03-14T02:55:47.999Z,91.60
2018-03-14T02:58:15.474Z,91.60
2018-03-14T03:00:42.965Z,91.80
2018-03-14T03:03:10.421Z,91.90
2018-03-14T03:05:38.719Z,92.10
2018-03-14T03:08:06.258Z,92.10
2018-03-14T03:10:34.495Z,92.00
2018-03-14T03:13:02.007Z,92.00
2018-03-14T03:15:29.500Z,92.00
2018-03-14T03:17:56.979Z,91.90
2018-03-14T03:20:24.590Z,92.10
2018-03-14T03:22:52.075Z,92.20
2018-03-14T03:25:19.684Z,92.20
2018-03-14T03:27:47.934Z,92.30
2018-03-14T03:30:15.631Z,92.30
2018-03-14T03:32:43.088Z,92.00
2018-03-14T03:35:10.619Z,92.40
2018-03-14T03:37:38.972Z,92.80
2018-03-14T03:40:06.718Z,92.50
2018-03-14T03:42:34.294Z,92.50
2018-03-14T03:45:01.833Z,92.30
2018-03-14T03:47:29.358Z,92.50
2018-03-14T03:49:56.901Z,92.70
2018-03-14T03:52:24.451Z,92.70
2018-03-14T03:54:52.807Z,92.80
2018-03-14T03:57:20.486Z,92.80
2018-03-14T03:59:48.863Z,92.80
2018-03-14T04:02:17.133Z,92.60
2018-03-14T04:04:45.699Z,92.50
2018-03-14T04:07:13.206Z,92.50
2018-03-14T04:09:40.739Z,92.60
2018-03-14T04:12:09.154Z,92.60
2018-03-14T04:14:36.694Z,92.60
2018-03-14T04:17:04.239Z,92.80
2018-03-14T04:19:31.737Z,92.90
2018-03-14T04:21:59.203Z,92.80
2018-03-14T04:24:26.717Z,92.80
2018-03-14T04:26:54.194Z,92.80
2018-03-14T04:29:21.682Z,92.60
2018-03-14T04:31:49.922Z,92.70
2018-03-14T04:34:17.406Z,92.70
2018-03-14T04:36:46.381Z,92.70
2018-03-14T04:39:13.883Z,92.60
2018-03-14T04:41:42.132Z,92.40
2018-03-14T04:44:09.632Z,92.30
2018-03-14T04:46:37.118Z,92.30
2018-03-14T04:49:04.597Z,92.20
2018-03-14T04:51:32.084Z,92.20
2018-03-14T04:54:00.350Z,92.10
2018-03-14T04:56:28.608Z,92.30
2018-03-14T04:58:56.105Z,92.20
2018-03-14T05:01:23.576Z,92.20
2018-03-14T05:03:51.051Z,92.10
2018-03-14T05:06:18.520Z,92.10
2018-03-14T05:08:45.999Z,92.20
2018-03-14T05:11:14.261Z,92.50
2018-03-14T05:13:41.727Z,92.10
2018-03-14T05:16:09.198Z,92.30
2018-03-14T05:18:37.447Z,92.30
2018-03-14T05:21:04.950Z,92.20
2018-03-14T05:23:32.423Z,92.30
2018-03-14T05:26:00.379Z,92.10
2018-03-14T05:28:27.963Z,92.30
2018-03-14T05:30:55.478Z,92.40
2018-03-14T05:33:22.959Z,92.30
2018-03-14T05:35:50.453Z,92.40
2018-03-14T05:38:18.079Z,92.20
2018-03-14T05:40:45.632Z,92.40
2018-03-14T05:43:13.188Z,92.40
2018-03-14T05:45:40.735Z,92.40
2018-03-14T05:48:08.220Z,92.40
2018-03-14T05:50:35.695Z,92.30
2018-03-14T05:53:03.187Z,92.10
2018-03-14T05:55:31.558Z,92.40
2018-03-14T05:57:59.843Z,92.30
2018-03-14T06:00:27.347Z,92.30
2018-03-14T06:02:54.826Z,92.20
2018-03-14T06:05:22.341Z,92.10
2018-03-14T06:07:50.555Z,92.10
2018-03-14T06:10:18.031Z,92.00
2018-03-14T06:12:46.284Z,92.30
2018-03-14T06:15:13.753Z,92.20
2018-03-14T06:17:42.095Z,92.40
2018-03-14T06:20:09.574Z,92.30
2018-03-14T06:22:37.156Z,92.30
2018-03-14T06:25:04.590Z,92.10
2018-03-14T06:27:32.079Z,91.90
2018-03-14T06:29:59.589Z,91.90
2018-03-14T06:32:27.076Z,91.90
2018-03-14T06:34:54.623Z,91.90
2018-03-14T06:37:22.871Z,91.70
2018-03-14T06:39:50.349Z,91.70
2018-03-14T06:42:17.840Z,91.70
2018-03-14T06:44:46.097Z,91.60
2018-03-14T06:47:14.331Z,91.40
2018-03-14T06:49:41.813Z,91.30
2018-03-14T06:52:09.305Z,91.30
2018-03-14T06:54:36.826Z,90.30
2018-03-14T06:57:05.095Z,84.70
2018-03-14T06:59:44.524Z,84.70
2018-03-14T07:02:24.691Z,81.50
2018-03-14T07:05:04.877Z,76.60
2018-03-14T07:07:32.353Z,76.50
2018-03-14T07:09:59.846Z,73.90
2018-03-14T07:12:27.343Z,69.80
2018-03-14T07:14:54.827Z,64.70
2018-03-14T07:17:22.499Z,63.20
2018-03-14T07:19:49.992Z,62.60
2018-03-14T07:22:17.614Z,62.80
2018-03-14T07:24:45.094Z,60.90
2018-03-14T07:27:13.369Z,57.30
2018-03-14T07:29:40.834Z,57.20
2018-03-14T07:32:09.082Z,53.70
2018-03-14T07:34:36.603Z,53.70
2018-03-14T07:37:04.080Z,52.80
2018-03-14T07:39:31.614Z,52.40
2018-03-14T07:41:59.123Z,50.60
2018-03-14T07:44:26.644Z,48.40
2018-03-14T07:46:54.153Z,47.70
2018-03-14T07:49:22.378Z,45.20
2018-03-14T07:51:49.954Z,45.10
2018-03-14T07:54:17.440Z,46.30
2018-03-14T07:56:45.675Z,47.20
2018-03-14T07:59:13.318Z,47.20
2018-03-14T08:01:40.821Z,48.00
2018-03-14T08:04:09.122Z,47.60
2018-03-14T08:06:36.692Z,47.20
2018-03-14T08:09:04.252Z,45.30
2018-03-14T08:11:31.789Z,45.80
2018-03-14T08:14:00.083Z,45.00
2018-03-14T08:16:27.606Z,44.90
2018-03-14T08:18:55.862Z,45.80
2018-03-14T08:21:23.430Z,45.70
2018-03-14T08:23:50.859Z,45.00
2018-03-14T08:26:18.503Z,44.30
2018-03-14T08:28:46.027Z,43.60
2018-03-14T08:31:13.610Z,44.20
2018-03-14T08:33:41.981Z,45.10
2018-03-14T08:36:09.452Z,46.20
2018-03-14T08:38:36.986Z,47.00
2018-03-14T08:41:04.463Z,46.20
2018-03-14T08:43:31.955Z,44.70
2018-03-14T08:45:59.563Z,43.60
2018-03-14T08:48:27.052Z,42.30
2018-03-14T08:50:54.540Z,42.00
2018-03-14T08:53:22.812Z,42.70
2018-03-14T08:55:51.174Z,43.00
2018-03-14T08:58:18.782Z,42.70
2018-03-14T09:00:46.304Z,43.10
2018-03-14T09:03:14.720Z,40.50
2018-03-14T09:05:42.397Z,40.40
2018-03-14T09:08:09.940Z,38.40
2018-03-14T09:10:37.506Z,38.60
2018-03-14T09:13:05.156Z,35.70
2018-03-14T09:15:32.646Z,33.90
2018-03-14T09:18:00.379Z,34.10
2018-03-14T09:20:27.939Z,34.20
2018-03-14T09:22:55.419Z,33.70
2018-03-14T09:25:22.974Z,34.30
2018-03-14T09:27:50.701Z,34.00
2018-03-14T09:30:18.361Z,33.30
2018-03-14T09:32:45.962Z,33.20
2018-03-14T09:35:13.582Z,32.10
2018-03-14T09:37:41.144Z,31.50
2018-03-14T09:40:08.665Z,31.20
2018-03-14T09:42:36.914Z,30.80
2018-03-14T09:45:04.431Z,30.80
2018-03-14T09:47:31.947Z,30.60
2018-03-14T09:50:00.440Z,31.10
2018-03-14T09:52:28.696Z,34.30
2018-03-14T09:54:57.011Z,34.00
2018-03-14T09:57:24.483Z,34.00
2018-03-14T09:59:52.004Z,31.60
2018-03-14T10:02:20.457Z,31.90
2018-03-14T10:04:47.972Z,31.90
2018-03-14T10:07:15.621Z,31.00
2018-03-14T10:09:43.168Z,30.90
2018-03-14T10:12:10.670Z,31.00
2018-03-14T10:14:38.175Z,32.20
2018-03-14T10:17:05.807Z,31.70
2018-03-14T10:19:33.369Z,32.50
2018-03-14T10:22:00.883Z,33.90
2018-03-14T10:24:28.546Z,34.30
2018-03-14T10:26:56.065Z,35.50
2018-03-14T10:29:23.626Z,37.00
2018-03-14T10:31:51.142Z,37.00
2018-03-14T10:34:18.630Z,36.80
2018-03-14T10:36:46.922Z,37.20
2018-03-14T10:39:14.482Z,37.20
2018-03-14T10:41:41.991Z,38.50
2018-03-14T10:44:10.963Z,37.10
2018-03-14T10:46:38.605Z,37.00
2018-03-14T10:49:06.201Z,36.20
2018-03-14T10:51:34.689Z,35.50
2018-03-14T10:54:02.175Z,35.50
2018-03-14T10:56:29.709Z,36.80
2018-03-14T10:58:57.987Z,38.60
2018-03-14T11:01:26.460Z,38.80
2018-03-14T11:03:54.815Z,38.60
2018-03-14T11:06:22.336Z,38.60
2018-03-14T11:08:49.839Z,38.80
2018-03-14T11:11:17.323Z,39.80
2018-03-14T11:13:45.699Z,40.40
2018-03-14T11:16:14.065Z,40.50
2018-03-14T11:18:42.416Z,40.30
2018-03-14T11:21:10.075Z,40.30
2018-03-14T11:23:37.583Z,40.20
2018-03-14T11:26:05.202Z,41.50
2018-03-14T11:28:34.561Z,41.40
2018-03-14T11:31:02.052Z,42.90
2018-03-14T11:33:29.571Z,43.50
2018-03-14T11:35:57.125Z,44.00
2018-03-14T11:38:24.727Z,43.80
2018-03-14T11:40:52.271Z,43.30
2018-03-14T11:43:19.907Z,44.00
2018-03-14T11:45:47.440Z,44.00
2018-03-14T11:48:15.111Z,44.00
2018-03-14T11:50:42.739Z,44.30
2018-03-14T11:53:11.775Z,44.60
2018-03-14T11:55:39.272Z,44.60
2018-03-14T11:58:07.571Z,45.10
2018-03-14T12:00:35.082Z,44.30
2018-03-14T12:03:02.608Z,45.20
2018-03-14T12:05:30.084Z,45.40
2018-03-14T12:07:57.593Z,44.70
2018-03-14T12:10:26.660Z,44.20
2018-03-14T12:12:55.989Z,44.10
2018-03-14T12:15:25.214Z,44.80
2018-03-14T12:17:52.716Z,44.70
2018-03-14T12:20:20.183Z,45.10
2018-03-14T12:22:47.683Z,44.80
2018-03-14T12:25:15.165Z,44.00
2018-03-14T12:27:44.724Z,44.30
2018-03-14T12:30:12.544Z,45.50
2018-03-14T12:32:42.141Z,44.80
2018-03-14T12:35:11.850Z,44.00
2018-03-14T12:37:40.103Z,44.10
2018-03-14T12:40:07.589Z,43.80
2018-03-14T12:42:35.149Z,44.90
2018-03-14T12:45:02.681Z,45.70
2018-03-14T12:47:30.212Z,44.70
2018-03-14T12:49:57.719Z,45.50
2018-03-14T12:52:25.203Z,44.10
2018-03-14T12:54:53.451Z,44.90
2018-03-14T12:57:20.931Z,44.80
2018-03-14T12:59:49.190Z,44.60
2018-03-14T13:02:16.664Z,44.50
2018-03-14T13:04:44.923Z,43.90
2018-03-14T13:07:12.399Z,43.90
2018-03-14T13:09:39.870Z,44.50
2018-03-14T13:12:07.435Z,44.90
2018-03-14T13:14:34.902Z,44.00
2018-03-14T13:17:02.424Z,45.00
2018-03-14T13:19:30.703Z,45.20
2018-03-14T13:21:59.151Z,44.00
2018-03-14T13:24:29.024Z,43.90
2018-03-14T13:26:56.550Z,43.80
2018-03-14T13:29:25.307Z,44.20
2018-03-14T13:31:52.830Z,44.10
2018-03-14T13:34:20.319Z,44.30
2018-03-14T13:36:47.852Z,44.10
2018-03-14T13:39:15.338Z,45.10
2018-03-14T13:41:42.828Z,44.30
2018-03-14T13:44:10.311Z,43.00
2018-03-14T13:46:37.896Z,42.20
2018-03-14T13:49:05.382Z,42.90
2018-03-14T13:51:32.902Z,43.10
2018-03-14T13:54:00.401Z,43.10
2018-03-14T13:56:28.759Z,41.80
2018-03-14T13:58:56.302Z,41.80
2018-03-14T14:01:23.786Z,41.50
2018-03-14T14:03:52.135Z,41.90
2018-03-14T14:06:19.606Z,41.80
2018-03-14T14:08:47.121Z,42.00
2018-03-14T14:11:14.607Z,41.80
2018-03-14T14:13:42.123Z,42.20
2018-03-14T14:16:09.612Z,43.30
2018-03-14T14:18:37.160Z,43.80
2018-03-14T14:21:04.645Z,43.30
2018-03-14T14:23:32.934Z,43.80
2018-03-14T14:26:01.187Z,43.20
2018-03-14T14:28:30.175Z,42.30
2018-03-14T14:30:57.677Z,42.30
2018-03-14T14:33:25.165Z,42.80
2018-03-14T14:35:52.684Z,42.60
2018-03-14T14:38:20.161Z,41.70
2018-03-14T14:40:47.666Z,40.40
2018-03-14T14:43:15.981Z,40.50
2018-03-14T14:45:43.471Z,40.50
2018-03-14T14:48:10.924Z,40.30
2018-03-14T14:50:38.413Z,40.50
2018-03-14T14:53:06.694Z,41.50
2018-03-14T14:55:34.932Z,41.80
2018-03-14T14:58:02.533Z,41.70
2018-03-14T15:00:30.321Z,41.10
2018-03-14T15:02:57.905Z,41.40
2018-03-14T15:05:25.509Z,42.40
2018-03-14T15:07:54.126Z,43.50
2018-03-14T15:10:21.741Z,43.40
2018-03-14T15:12:49.218Z,43.30
2018-03-14T15:15:16.836Z,43.60
2018-03-14T15:17:44.363Z,43.60
2018-03-14T15:20:12.712Z,43.00
2018-03-14T15:22:40.385Z,43.20
2018-03-14T15:25:07.943Z,43.20
2018-03-14T15:27:35.466Z,43.60
2018-03-14T15:30:03.788Z,43.40
2018-03-14T15:32:31.299Z,43.50
2018-03-14T15:34:59.567Z,43.00
2018-03-14T15:37:27.060Z,43.00
2018-03-14T15:39:56.181Z,43.60
2018-03-14T15:42:23.668Z,43.20
2018-03-14T15:44:51.131Z,43.00
2018-03-14T15:47:20.010Z,43.40
2018-03-14T15:49:48.089Z,43.40
2018-03-14T15:52:15.582Z,44.60
2018-03-14T15:54:45.124Z,45.10
2018-03-14T15:57:12.662Z,44.70
2018-03-14T15:59:41.145Z,44.60
2018-03-14T16:02:09.520Z,45.10
2018-03-14T16:04:38.015Z,45.00
2018-03-14T16:07:05.519Z,45.90
2018-03-14T16:09:33.805Z,45.40
2018-03-14T16:12:01.293Z,45.40
2018-03-14T16:14:28.832Z,45.90
2018-03-14T16:16:56.311Z,45.70
2018-03-14T16:19:23.793Z,45.90
2018-03-14T16:21:51.259Z,46.30
2018-03-14T16:24:20.254Z,45.40
2018-03-14T16:26:48.487Z,45.30
2018-03-14T16:29:16.017Z,45.30
2018-03-14T16:31:44.514Z,45.90
2018-03-14T16:34:12.124Z,46.00
2018-03-14T16:36:40.087Z,46.10
2018-03-14T16:39:08.331Z,46.50
2018-03-14T16:41:35.797Z,46.50
2018-03-14T16:44:06.333Z,47.00
2018-03-14T16:46:33.841Z,46.60
2018-03-14T16:49:01.361Z,47.10
2018-03-14T16:51:29.738Z,47.20
2018-03-14T16:53:57.227Z,47.20
2018-03-14T16:56:24.708Z,47.30
2018-03-14T16:58:52.172Z,47.40
2018-03-14T17:01:19.643Z,47.60
2018-03-14T17:03:47.122Z,48.20
2018-03-14T17:06:15.376Z,48.70
2018-03-14T17:08:42.844Z,48.70
2018-03-14T17:11:11.155Z,49.80
2018-03-14T17:13:38.634Z,49.80
2018-03-14T17:16:06.115Z,49.10
2018-03-14T17:18:33.604Z,49.20
2018-03-14T17:21:01.132Z,49.80
2018-03-14T17:23:28.602Z,49.90
2018-03-14T17:25:56.882Z,50.50
2018-03-14T17:28:25.113Z,51.00
2018-03-14T17:30:52.606Z,51.00
2018-03-14T17:33:20.861Z,51.50
2018-03-14T17:35:49.106Z,51.50
2018-03-14T17:38:16.660Z,51.60
2018-03-14T17:40:44.137Z,52.30
2018-03-14T17:45:46.422Z,54.20
2018-03-14T17:48:13.897Z,54.20
2018-03-14T17:50:41.395Z,54.70
2018-03-14T17:53:08.867Z,54.70
2018-03-14T17:55:36.353Z,54.80
2018-03-14T17:58:05.356Z,56.20
2018-03-14T18:00:33.618Z,56.10
2018-03-14T18:03:01.127Z,55.90
2018-03-14T18:05:28.611Z,56.20
2018-03-14T18:07:56.101Z,56.60
2018-03-14T18:10:24.347Z,57.20
2018-03-14T18:12:51.823Z,57.10
2018-03-14T18:15:19.335Z,57.60
2018-03-14T18:17:46.838Z,57.90
2018-03-14T18:20:14.314Z,58.10
2018-03-14T18:22:42.581Z,58.80
2018-03-14T18:25:10.814Z,58.80
2018-03-14T18:27:38.336Z,58.80
2018-03-14T18:30:05.819Z,58.90
2018-03-14T18:32:33.285Z,59.20
2018-03-14T18:35:00.759Z,59.40
2018-03-14T18:37:28.234Z,59.60
2018-03-14T18:39:56.495Z,59.90
2018-03-14T18:42:23.964Z,59.90
2018-03-14T18:44:52.278Z,60.40
2018-03-14T18:47:19.748Z,60.30
2018-03-14T18:49:47.270Z,60.30
2018-03-14T18:52:14.822Z,60.10
2018-03-14T18:54:43.226Z,59.90
2018-03-14T18:57:10.713Z,59.90
2018-03-14T18:59:38.203Z,59.80
2018-03-14T19:02:06.467Z,60.00
2018-03-14T19:04:34.766Z,60.80
2018-03-14T19:07:02.510Z,60.00
2018-03-14T19:09:30.764Z,60.60
2018-03-14T19:11:58.251Z,61.20
2018-03-14T19:14:26.489Z,60.90
2018-03-14T19:16:53.992Z,60.80
2018-03-14T19:19:21.494Z,60.90
2018-03-14T19:21:48.971Z,61.10
2018-03-14T19:24:16.438Z,61.20
2018-03-14T19:26:43.918Z,61.40
2018-03-14T19:29:11.389Z,61.50
2018-03-14T19:31:38.881Z,62.00
2018-03-14T19:34:06.371Z,62.40
2018-03-14T19:36:37.369Z,62.70
2018-03-14T19:39:04.909Z,62.70
2018-03-14T19:41:34.253Z,62.80
2018-03-14T19:44:01.750Z,62.60
2018-03-14T19:46:29.243Z,63.00
2018-03-14T19:48:56.742Z,63.10
2018-03-14T19:51:24.960Z,63.30
2018-03-14T19:53:52.456Z,63.30
2018-03-14T19:56:20.808Z,64.20
2018-03-14T19:58:48.309Z,63.70
2018-03-14T20:01:15.868Z,63.70
2018-03-14T20:03:43.456Z,63.90
2018-03-14T20:06:10.919Z,64.10
2018-03-14T20:08:38.426Z,64.30
2018-03-14T20:11:06.729Z,64.90
2018-03-14T20:13:34.224Z,64.90
2018-03-14T20:16:01.691Z,65.30
2018-03-14T20:18:29.175Z,65.80
2018-03-14T20:20:57.458Z,66.60
2018-03-14T20:23:24.951Z,66.60
2018-03-14T20:25:52.853Z,66.70
2018-03-14T20:28:20.330Z,66.60
2018-03-14T20:30:48.725Z,66.90
2018-03-14T20:33:16.256Z,66.90
2018-03-14T20:35:43.753Z,67.10
2018-03-14T20:38:11.211Z,67.40
2018-03-14T20:40:38.686Z,67.50
2018-03-14T20:43:06.142Z,67.70
2018-03-14T20:45:33.629Z,67.50
2018-03-14T20:48:01.111Z,67.60
2018-03-14T20:50:28.588Z,67.60
2018-03-14T20:52:56.183Z,67.70
2018-03-14T20:55:23.676Z,67.60
2018-03-14T20:57:51.144Z,67.70
2018-03-14T21:00:18.652Z,68.00
2018-03-14T21:02:46.141Z,68.20
2018-03-14T21:05:13.800Z,68.00
2018-03-14T21:07:42.071Z,68.50
2018-03-14T21:10:10.322Z,68.60
2018-03-14T21:12:37.833Z,68.60
2018-03-14T21:15:05.318Z,68.60
2018-03-14T21:17:32.876Z,69.00
2018-03-14T21:20:00.359Z,69.10
2018-03-14T21:22:28.634Z,69.10
2018-03-14T21:24:56.895Z,69.20
2018-03-14T21:27:24.405Z,69.10
2018-03-14T21:29:51.910Z,69.20
2018-03-14T21:32:19.386Z,69.40
2018-03-14T21:34:47.649Z,69.40
2018-03-14T21:37:15.883Z,69.60
2018-03-14T21:39:43.377Z,69.50
2018-03-14T21:42:10.923Z,69.70
2018-03-14T21:44:38.461Z,69.60
2018-03-14T21:47:05.950Z,70.10
2018-03-14T21:49:33.435Z,70.30
2018-03-14T21:52:01.570Z,70.20
2018-03-14T21:54:29.148Z,70.40
2018-03-14T21:56:57.388Z,71.50
2018-03-14T21:59:24.899Z,70.80
2018-03-14T22:01:53.503Z,70.60
2018-03-14T22:04:21.119Z,70.80
2018-03-14T22:06:49.491Z,70.80
2018-03-14T22:09:17.779Z,70.50
2018-03-14T22:11:45.318Z,70.50
2018-03-14T22:14:13.733Z,70.50
2018-03-14T22:16:41.313Z,70.40
2018-03-14T22:19:08.810Z,70.50
2018-03-14T22:21:37.067Z,70.40
2018-03-14T22:24:04.780Z,70.40
2018-03-14T22:26:32.282Z,70.40
2018-03-14T22:28:59.825Z,70.30
2018-03-14T22:31:27.310Z,70.20
2018-03-14T22:33:54.849Z,70.30
2018-03-14T22:36:22.395Z,70.30
2018-03-14T22:38:49.919Z,70.20
2018-03-14T22:41:17.412Z,70.40
2018-03-14T22:43:44.885Z,70.50
2018-03-14T22:46:12.514Z,70.40
2018-03-14T22:48:40.001Z,70.30
2018-03-14T22:51:07.516Z,70.10
2018-03-14T22:53:35.230Z,70.30
2018-03-14T22:56:02.717Z,70.00
2018-03-14T22:58:30.196Z,70.10
2018-03-14T23:00:57.695Z,70.00
2018-03-14T23:03:25.246Z,70.10
2018-03-14T23:05:52.753Z,69.90
2018-03-14T23:08:20.411Z,69.80
2018-03-14T23:10:47.928Z,69.80
2018-03-14T23:13:15.503Z,69.70
2018-03-14T23:15:43.781Z,69.50
2018-03-14T23:18:12.030Z,69.30
2018-03-14T23:20:39.494Z,69.30
2018-03-14T23:23:07.757Z,69.50
2018-03-14T23:25:35.254Z,69.50
2018-03-14T23:28:02.752Z,69.40
2018-03-14T23:30:30.209Z,69.50
2018-03-14T23:32:58.963Z,69.50
2018-03-14T23:35:26.438Z,69.60
2018-03-14T23:37:54.010Z,69.50
2018-03-14T23:40:21.478Z,69.40
2018-03-14T23:42:48.959Z,69.50
2018-03-14T23:45:16.441Z,69.40
2018-03-14T23:47:43.978Z,69.50
2018-03-14T23:50:11.607Z,69.60
2018-03-14T23:52:39.145Z,69.80
2018-03-14T23:55:06.753Z,69.80
2018-03-14T23:57:34.998Z,69.90
